createdAt,value
2018-03-24T00:00:09.742Z,-0.12
2018-03-24T00:02:37.330Z,-0.13
2018-03-24T00:05:04.915Z,-0.16
2018-03-24T00:07:32.512Z,-0.29
2018-03-24T00:10:00.089Z,-0.21
2018-03-24T00:12:27.717Z,-0.12
2018-03-24T00:14:55.512Z,-0.24
2018-03-24T00:17:23.327Z,-0.23
2018-03-24T00:19:50.935Z,-0.24
2018-03-24T00:22:18.665Z,-0.19
2018-03-24T00:24:46.238Z,-0.21
2018-03-24T00:27:13.999Z,-0.24
2018-03-24T00:29:41.638Z,-0.23
2018-03-24T00:32:09.202Z,-0.31
2018-03-24T00:34:36.914Z,-0.26
2018-03-24T00:37:04.497Z,-0.30
2018-03-24T00:39:32.071Z,-0.35
2018-03-24T00:41:59.718Z,-0.36
2018-03-24T00:44:27.524Z,-0.46
2018-03-24T00:46:55.350Z,-0.46
2018-03-24T00:49:23.163Z,-0.50
2018-03-24T00:51:50.748Z,-0.51
2018-03-24T00:54:18.330Z,-0.48
2018-03-24T00:56:46.116Z,-0.47
2018-03-24T00:59:13.846Z,-0.50
2018-03-24T01:01:41.434Z,-0.51
2018-03-24T01:04:09.042Z,-0.52
2018-03-24T01:06:36.606Z,-0.48
2018-03-24T01:09:04.247Z,-0.44
2018-03-24T01:11:31.902Z,-0.46
2018-03-24T01:13:59.473Z,-0.42
2018-03-24T01:16:27.149Z,-0.37
2018-03-24T01:18:54.769Z,-0.26
2018-03-24T01:21:22.390Z,-0.21
2018-03-24T01:23:49.983Z,-0.20
2018-03-24T01:26:17.550Z,-0.20
2018-03-24T01:28:45.132Z,-0.20
2018-03-24T01:31:12.738Z,-0.27
2018-03-24T01:33:40.326Z,-0.23
2018-03-24T01:36:07.910Z,-0.19
2018-03-24T01:38:35.513Z,-0.33
2018-03-24T01:41:03.101Z,-0.41
2018-03-24T01:43:30.667Z,-0.45
2018-03-24T01:45:58.246Z,-0.45
2018-03-24T01:48:25.814Z,-0.48
2018-03-24T01:50:53.400Z,-0.47
2018-03-24T01:53:21.026Z,-0.38
2018-03-24T01:55:48.734Z,-0.37
2018-03-24T01:58:16.374Z,-0.45
2018-03-24T02:00:43.974Z,-0.45
2018-03-24T02:03:11.561Z,-0.40
2018-03-24T02:05:39.131Z,-0.40
2018-03-24T02:08:06.721Z,-0.41
2018-03-24T02:10:34.290Z,-0.48
2018-03-24T02:13:01.897Z,-0.50
2018-03-24T02:15:29.453Z,-0.58
2018-03-24T02:17:57.017Z,-0.59
2018-03-24T02:20:24.816Z,-0.54
2018-03-24T02:22:52.400Z,-0.51
2018-03-24T02:25:20.257Z,-0.50
2018-03-24T02:27:47.834Z,-0.52
2018-03-24T02:30:15.712Z,-0.56
2018-03-24T02:32:43.305Z,-0.52
2018-03-24T02:35:10.892Z,-0.54
2018-03-24T02:37:38.523Z,-0.56
2018-03-24T02:40:06.110Z,-0.51
2018-03-24T02:42:33.883Z,-0.54
2018-03-24T02:45:01.454Z,-0.55
2018-03-24T02:47:29.218Z,-0.51
2018-03-24T02:49:56.846Z,-0.52
2018-03-24T02:52:24.655Z,-0.58
2018-03-24T02:54:52.265Z,-0.54
2018-03-24T02:57:19.881Z,-0.59
2018-03-24T02:59:47.450Z,-0.63
2018-03-24T03:02:15.326Z,-0.64
2018-03-24T03:04:43.146Z,-0.60
2018-03-24T03:07:10.966Z,-0.63
2018-03-24T03:09:38.538Z,-0.63
2018-03-24T03:12:06.121Z,-0.59
2018-03-24T03:14:33.917Z,-0.62
2018-03-24T03:17:01.497Z,-0.69
2018-03-24T03:19:29.314Z,-0.67
2018-03-24T03:21:57.173Z,-0.65
2018-03-24T03:24:24.750Z,-0.66
2018-03-24T03:26:52.442Z,-0.58
2018-03-24T03:29:20.231Z,-0.55
2018-03-24T03:31:50.647Z,-0.48
2018-03-24T03:34:18.266Z,-0.44
2018-03-24T03:36:45.834Z,-0.40
2018-03-24T03:39:13.607Z,-0.33
2018-03-24T03:41:41.178Z,-0.31
2018-03-24T03:44:08.947Z,-0.30
2018-03-24T03:46:36.529Z,-0.34
2018-03-24T03:49:04.130Z,-0.30
2018-03-24T03:51:31.694Z,-0.27
2018-03-24T03:53:59.257Z,-0.20
2018-03-24T03:56:26.830Z,-0.23
2018-03-24T03:58:54.548Z,-0.22
2018-03-24T04:01:22.223Z,-0.19
2018-03-24T04:03:49.987Z,-0.16
2018-03-24T04:06:17.590Z,-0.18
2018-03-24T04:08:45.158Z,-0.17
2018-03-24T04:11:12.718Z,-0.20
2018-03-24T04:13:40.310Z,-0.18
2018-03-24T04:16:08.378Z,-0.23
2018-03-24T04:18:36.095Z,-0.31
2018-03-24T04:21:03.681Z,-0.34
2018-03-24T04:23:31.300Z,-0.33
2018-03-24T04:25:59.048Z,-0.38
2018-03-24T04:28:26.739Z,-0.37
2018-03-24T04:30:54.314Z,-0.41
2018-03-24T04:33:21.883Z,-0.38
2018-03-24T04:35:49.512Z,-0.37
2018-03-24T04:38:17.338Z,-0.42
2018-03-24T04:40:44.922Z,-0.40
2018-03-24T04:43:12.501Z,-0.36
2018-03-24T04:45:40.071Z,-0.35
2018-03-24T04:48:07.642Z,-0.34
2018-03-24T04:50:35.233Z,-0.30
2018-03-24T04:53:03.045Z,-0.34
2018-03-24T04:55:30.617Z,-0.35
2018-03-24T04:57:58.189Z,-0.35
2018-03-24T05:00:25.973Z,-0.33
2018-03-24T05:02:53.556Z,-0.33
2018-03-24T05:05:21.305Z,-0.33
2018-03-24T05:07:48.870Z,-0.28
2018-03-24T05:10:16.590Z,-0.27
2018-03-24T05:12:44.155Z,-0.28
2018-03-24T05:15:11.730Z,-0.22
2018-03-24T05:17:39.300Z,-0.16
2018-03-24T05:20:07.026Z,-0.11
2018-03-24T05:22:34.668Z,-0.07
2018-03-24T05:25:02.246Z,-0.15
2018-03-24T05:27:31.101Z,-0.13
2018-03-24T05:29:58.662Z,-0.12
2018-03-24T05:32:26.437Z,-0.06
2018-03-24T05:34:54.260Z,0.05
2018-03-24T05:37:21.973Z,0.20
2018-03-24T05:39:49.638Z,0.24
2018-03-24T05:42:17.190Z,0.24
2018-03-24T05:44:44.765Z,0.25
2018-03-24T05:47:12.337Z,0.30
2018-03-24T05:49:39.953Z,0.28
2018-03-24T05:52:07.681Z,0.24
2018-03-24T05:54:35.290Z,0.33
2018-03-24T05:57:02.866Z,0.29
2018-03-24T05:59:30.438Z,0.35
2018-03-24T06:01:58.028Z,0.40
2018-03-24T06:04:25.630Z,0.41
2018-03-24T06:06:53.358Z,0.52
2018-03-24T06:09:20.925Z,0.61
2018-03-24T06:11:48.490Z,0.69
2018-03-24T06:14:16.086Z,0.80
2018-03-24T06:16:43.658Z,0.83
2018-03-24T06:19:11.375Z,0.75
2018-03-24T06:21:38.937Z,0.57
2018-03-24T06:24:06.832Z,0.42
2018-03-24T06:26:34.458Z,0.44
2018-03-24T06:29:02.248Z,0.39
2018-03-24T06:31:30.067Z,0.20
2018-03-24T06:33:57.726Z,0.38
2018-03-24T06:36:27.271Z,0.52
2018-03-24T06:38:54.854Z,0.75
2018-03-24T06:41:22.533Z,0.90
2018-03-24T06:43:50.264Z,0.88
2018-03-24T06:46:17.837Z,0.94
2018-03-24T06:48:45.390Z,1.08
2018-03-24T06:51:13.117Z,1.24
2018-03-24T06:53:40.714Z,1.50
2018-03-24T06:56:08.428Z,1.63
2018-03-24T06:58:36.184Z,1.84
2018-03-24T07:01:03.870Z,2.00
2018-03-24T07:03:31.602Z,2.05
2018-03-24T07:05:59.426Z,2.13
2018-03-24T07:08:27.144Z,2.10
2018-03-24T07:10:54.726Z,2.14
2018-03-24T07:13:22.310Z,2.23
2018-03-24T07:15:50.066Z,2.33
2018-03-24T07:18:17.707Z,2.30
2018-03-24T07:20:45.306Z,2.26
2018-03-24T07:23:12.871Z,2.30
2018-03-24T07:25:40.432Z,2.38
2018-03-24T07:28:08.187Z,2.49
2018-03-24T07:30:35.738Z,2.66
2018-03-24T07:33:03.523Z,2.49
2018-03-24T07:35:31.088Z,2.48
2018-03-24T07:37:58.863Z,2.28
2018-03-24T07:40:26.442Z,2.24
2018-03-24T07:42:54.160Z,2.24
2018-03-24T07:45:21.875Z,2.31
2018-03-24T07:47:49.433Z,2.56
2018-03-24T07:50:17.091Z,2.68
2018-03-24T07:52:44.871Z,2.79
2018-03-24T07:55:12.586Z,2.90
2018-03-24T07:57:40.150Z,2.92
2018-03-24T08:00:07.759Z,3.00
2018-03-24T08:02:35.343Z,3.06
2018-03-24T08:05:03.154Z,3.29
2018-03-24T08:07:30.786Z,3.44
2018-03-24T08:09:58.594Z,3.46
2018-03-24T08:12:26.413Z,3.47
2018-03-24T08:14:54.229Z,3.11
2018-03-24T08:17:21.948Z,2.98
2018-03-24T08:19:49.514Z,3.04
2018-03-24T08:22:17.070Z,3.17
2018-03-24T08:24:44.693Z,3.43
2018-03-24T08:27:12.421Z,3.34
2018-03-24T08:29:40.148Z,3.59
2018-03-24T08:32:07.747Z,3.78
2018-03-24T08:34:35.357Z,3.65
2018-03-24T08:37:03.092Z,3.48
2018-03-24T08:39:30.703Z,3.35
2018-03-24T08:41:58.533Z,3.26
2018-03-24T08:44:26.347Z,3.21
2018-03-24T08:46:53.902Z,3.34
2018-03-24T08:49:21.687Z,3.32
2018-03-24T08:51:49.402Z,2.66
2018-03-24T08:54:16.966Z,2.22
2018-03-24T08:56:44.522Z,2.15
2018-03-24T08:59:12.133Z,1.87
2018-03-24T09:01:39.694Z,1.80
2018-03-24T09:04:07.258Z,1.73
2018-03-24T09:06:34.984Z,1.74
2018-03-24T09:09:02.606Z,1.66
2018-03-24T09:11:30.178Z,1.68
2018-03-24T09:13:57.961Z,1.81
2018-03-24T09:16:25.578Z,2.11
2018-03-24T09:18:53.143Z,2.43
2018-03-24T09:21:20.915Z,2.67
2018-03-24T09:23:48.524Z,2.77
2018-03-24T09:26:16.107Z,2.91
2018-03-24T09:28:43.873Z,2.88
2018-03-24T09:31:11.429Z,3.07
2018-03-24T09:33:39.038Z,2.95
2018-03-24T09:36:06.825Z,3.13
2018-03-24T09:38:34.390Z,3.30
2018-03-24T09:41:01.955Z,3.27
2018-03-24T09:43:29.514Z,3.46
2018-03-24T09:45:57.083Z,3.38
2018-03-24T09:48:24.927Z,3.53
2018-03-24T09:50:52.671Z,3.61
2018-03-24T09:53:20.228Z,3.73
2018-03-24T09:55:47.800Z,3.54
2018-03-24T09:58:15.375Z,3.45
2018-03-24T10:00:42.993Z,3.67
2018-03-24T10:03:10.611Z,4.08
2018-03-24T10:05:38.440Z,4.55
2018-03-24T10:08:06.257Z,4.68
2018-03-24T10:10:33.834Z,4.78
2018-03-24T10:13:01.443Z,4.69
2018-03-24T10:15:29.213Z,4.45
2018-03-24T10:17:56.771Z,4.48
2018-03-24T10:20:24.422Z,4.50
2018-03-24T10:23:04.900Z,4.56
2018-03-24T10:25:32.485Z,4.58
2018-03-24T10:28:00.214Z,4.41
2018-03-24T10:30:27.930Z,4.10
2018-03-24T10:32:55.491Z,3.81
2018-03-24T10:35:23.075Z,3.49
2018-03-24T10:37:56.250Z,3.55
2018-03-24T10:40:23.867Z,3.58
2018-03-24T10:45:58.703Z,3.32
2018-03-24T10:48:26.420Z,3.38
2018-03-24T10:50:54.264Z,3.52
2018-03-24T10:53:21.856Z,3.57
2018-03-24T10:55:49.567Z,3.77
2018-03-24T10:58:17.133Z,3.72
2018-03-24T11:00:50.334Z,3.40
2018-03-24T11:03:17.906Z,3.23
2018-03-24T11:05:45.607Z,3.44
2018-03-24T11:08:13.201Z,3.56
2018-03-24T11:10:40.928Z,3.68
2018-03-24T11:13:08.547Z,3.63
2018-03-24T11:15:36.109Z,3.56
2018-03-24T11:18:03.861Z,3.74
2018-03-24T11:20:31.577Z,3.76
2018-03-24T11:22:59.299Z,3.89
2018-03-24T11:25:26.913Z,3.83
2018-03-24T11:27:54.476Z,3.48
2018-03-24T11:30:22.243Z,3.58
2018-03-24T11:32:49.822Z,3.72
2018-03-24T11:35:17.608Z,3.62
2018-03-24T11:37:45.427Z,3.56
2018-03-24T11:40:13.244Z,3.73
2018-03-24T11:42:40.810Z,3.68
2018-03-24T11:45:08.385Z,3.59
2018-03-24T11:47:36.009Z,3.49
2018-03-24T11:50:03.617Z,3.38
2018-03-24T11:52:31.234Z,3.34
2018-03-24T11:54:58.928Z,3.39
2018-03-24T11:57:26.582Z,3.37
2018-03-24T11:59:54.202Z,3.32
2018-03-24T12:02:21.782Z,3.25
2018-03-24T12:04:49.524Z,3.43
2018-03-24T12:07:17.342Z,3.52
2018-03-24T12:09:45.160Z,3.67
2018-03-24T12:12:12.769Z,3.61
2018-03-24T12:14:40.488Z,3.75
2018-03-24T12:17:08.165Z,3.99
2018-03-24T12:19:35.934Z,4.15
2018-03-24T12:22:03.649Z,4.20
2018-03-24T12:24:31.244Z,4.06
2018-03-24T12:26:58.818Z,3.95
2018-03-24T12:29:26.401Z,3.73
2018-03-24T12:31:53.973Z,3.21
2018-03-24T12:34:21.545Z,2.91
2018-03-24T12:36:49.357Z,2.85
2018-03-24T12:39:17.180Z,3.10
2018-03-24T12:41:44.995Z,2.89
2018-03-24T12:44:12.775Z,2.95
2018-03-24T12:46:40.343Z,2.97
2018-03-24T12:49:08.149Z,3.10
2018-03-24T12:51:35.840Z,3.01
2018-03-24T12:54:03.686Z,2.71
2018-03-24T12:56:31.506Z,2.65
2018-03-24T12:58:59.127Z,2.79
2018-03-24T13:01:26.698Z,3.05
2018-03-24T13:03:54.334Z,3.14
2018-03-24T13:06:22.076Z,3.02
2018-03-24T13:08:49.643Z,3.18
2018-03-24T13:11:17.219Z,3.16
2018-03-24T13:13:44.774Z,3.23
2018-03-24T13:16:12.512Z,3.15
2018-03-24T13:18:40.081Z,3.18
2018-03-24T13:21:07.634Z,3.21
2018-03-24T13:23:35.358Z,3.23
2018-03-24T13:26:02.950Z,3.21
2018-03-24T13:28:30.628Z,3.29
2018-03-24T13:30:58.199Z,3.21
2018-03-24T13:33:25.972Z,3.33
2018-03-24T13:35:53.745Z,3.24
2018-03-24T13:38:21.306Z,3.01
2018-03-24T13:40:48.875Z,2.79
2018-03-24T13:43:16.645Z,2.75
2018-03-24T13:45:44.462Z,2.69
2018-03-24T13:48:12.182Z,2.61
2018-03-24T13:50:39.900Z,2.60
2018-03-24T13:53:07.476Z,2.42
2018-03-24T13:55:35.185Z,2.33
2018-03-24T13:58:02.777Z,2.30
2018-03-24T14:00:30.366Z,2.31
2018-03-24T14:02:58.111Z,2.41
2018-03-24T14:05:25.906Z,2.39
2018-03-24T14:07:53.539Z,2.32
2018-03-24T14:10:21.345Z,2.28
2018-03-24T14:12:49.162Z,2.20
2018-03-24T14:15:16.800Z,2.23
2018-03-24T14:17:44.403Z,2.34
2018-03-24T14:20:12.218Z,2.22
2018-03-24T14:22:39.810Z,2.21
2018-03-24T14:25:07.383Z,2.21
2018-03-24T14:27:34.951Z,2.18
2018-03-24T14:30:02.526Z,2.24
2018-03-24T14:32:30.116Z,2.25
2018-03-24T14:34:57.809Z,2.27
2018-03-24T14:37:25.433Z,2.22
2018-03-24T14:39:53.159Z,2.20
2018-03-24T14:42:20.738Z,2.22
2018-03-24T14:44:48.496Z,2.08
2018-03-24T14:47:16.314Z,2.02
2018-03-24T14:49:43.882Z,2.13
2018-03-24T14:52:11.449Z,2.17
2018-03-24T14:54:39.090Z,2.12
2018-03-24T14:57:06.663Z,2.06
2018-03-24T14:59:34.221Z,2.07
2018-03-24T15:02:01.809Z,2.11
2018-03-24T15:04:29.379Z,2.17
2018-03-24T15:06:56.951Z,2.14
2018-03-24T15:09:24.519Z,2.12
2018-03-24T15:11:52.162Z,2.12
2018-03-24T15:14:19.736Z,2.23
2018-03-24T15:16:47.352Z,2.24
2018-03-24T15:19:15.145Z,2.25
2018-03-24T15:21:42.741Z,2.21
2018-03-24T15:24:10.314Z,2.10
2018-03-24T15:26:37.888Z,2.04
2018-03-24T15:29:17.204Z,2.06
2018-03-24T15:34:59.285Z,1.91
2018-03-24T15:37:26.846Z,1.89
2018-03-24T15:39:54.518Z,1.82
2018-03-24T15:42:22.079Z,1.71
2018-03-24T15:44:49.682Z,1.63
2018-03-24T15:47:17.259Z,1.50
2018-03-24T15:49:44.979Z,1.38
2018-03-24T15:52:12.561Z,1.40
2018-03-24T15:54:40.131Z,1.47
2018-03-24T15:57:07.917Z,1.44
2018-03-24T15:59:35.736Z,1.45
2018-03-24T16:02:03.301Z,1.47
2018-03-24T16:04:31.133Z,1.43
2018-03-24T16:06:58.720Z,1.43
2018-03-24T16:09:26.294Z,1.28
2018-03-24T16:11:53.907Z,1.25
2018-03-24T16:14:21.525Z,1.18
2018-03-24T16:16:49.103Z,1.09
2018-03-24T16:19:16.667Z,1.03
2018-03-24T16:21:44.401Z,1.06
2018-03-24T16:24:12.014Z,1.00
2018-03-24T16:26:39.646Z,0.99
2018-03-24T16:29:07.418Z,0.97
2018-03-24T16:31:35.060Z,0.96
2018-03-24T16:34:02.985Z,0.97
2018-03-24T16:36:30.805Z,1.01
2018-03-24T16:38:58.625Z,0.99
2018-03-24T16:41:26.443Z,0.95
2018-03-24T16:43:54.254Z,0.96
2018-03-24T16:46:22.283Z,1.00
2018-03-24T16:48:50.097Z,1.02
2018-03-24T16:51:17.910Z,1.07
2018-03-24T16:53:45.707Z,1.03
2018-03-24T16:56:13.556Z,1.11
2018-03-24T16:58:41.261Z,1.16
2018-03-24T17:01:09.253Z,1.13
2018-03-24T17:03:36.896Z,1.10
2018-03-24T17:06:04.519Z,1.09
2018-03-24T17:08:32.348Z,1.09
2018-03-24T17:11:00.057Z,0.99
2018-03-24T17:13:27.888Z,0.95
2018-03-24T17:15:55.472Z,0.97
2018-03-24T17:18:23.306Z,1.03
2018-03-24T17:20:51.290Z,1.00
2018-03-24T17:23:19.048Z,0.99
2018-03-24T17:25:46.838Z,1.04
2018-03-24T17:28:14.597Z,0.96
2018-03-24T17:30:42.193Z,0.95
2018-03-24T17:33:09.780Z,0.99
2018-03-24T17:35:37.419Z,1.00
2018-03-24T17:38:05.042Z,1.02
2018-03-24T17:40:32.617Z,1.08
2018-03-24T17:43:00.401Z,1.15
2018-03-24T17:45:27.999Z,1.16
2018-03-24T17:47:55.565Z,1.10
2018-03-24T17:50:23.143Z,1.03
2018-03-24T17:52:50.778Z,0.97
2018-03-24T17:55:18.347Z,1.01
2018-03-24T17:57:46.073Z,0.99
2018-03-24T18:00:13.654Z,0.97
2018-03-24T18:02:41.222Z,1.06
2018-03-24T18:05:08.799Z,1.05
2018-03-24T18:07:36.364Z,1.09
2018-03-24T18:10:04.089Z,1.08
2018-03-24T18:12:31.638Z,1.01
2018-03-24T18:14:59.203Z,1.02
2018-03-24T18:17:26.785Z,0.96
2018-03-24T18:19:54.351Z,0.97
2018-03-24T18:22:21.949Z,0.94
2018-03-24T18:24:49.522Z,1.01
2018-03-24T18:27:17.212Z,1.03
2018-03-24T18:29:44.782Z,1.05
2018-03-24T18:32:12.360Z,1.06
2018-03-24T18:34:39.936Z,1.07
2018-03-24T18:37:07.512Z,1.08
2018-03-24T18:39:35.086Z,1.12
2018-03-24T18:42:02.678Z,1.14
2018-03-24T18:44:30.259Z,1.18
2018-03-24T18:46:58.063Z,1.17
2018-03-24T18:49:25.767Z,1.16
2018-03-24T18:51:53.499Z,1.07
2018-03-24T18:54:21.318Z,1.08
2018-03-24T18:56:49.029Z,1.08
2018-03-24T18:59:16.642Z,1.08
2018-03-24T19:01:44.218Z,1.15
2018-03-24T19:04:11.823Z,1.19
2018-03-24T19:06:39.410Z,1.21
2018-03-24T19:09:06.999Z,1.25
2018-03-24T19:11:34.643Z,1.26
2018-03-24T19:14:02.206Z,1.24
2018-03-24T19:16:29.788Z,1.21
2018-03-24T19:18:57.599Z,1.15
2018-03-24T19:21:25.176Z,1.13
2018-03-24T19:23:52.782Z,1.03
2018-03-24T19:26:20.550Z,1.00
2018-03-24T19:28:48.368Z,0.89
2018-03-24T19:31:15.972Z,0.74
2018-03-24T19:33:43.623Z,0.74
2018-03-24T19:36:11.425Z,0.78
2018-03-24T19:38:39.173Z,0.79
2018-03-24T19:41:06.754Z,0.78
2018-03-24T19:43:34.341Z,0.76
2018-03-24T19:46:01.945Z,0.77
2018-03-24T19:48:29.681Z,0.82
2018-03-24T19:50:57.251Z,0.80
2018-03-24T19:53:25.050Z,0.84
2018-03-24T19:55:52.666Z,0.87
2018-03-24T19:58:20.235Z,0.90
2018-03-24T20:00:48.004Z,0.96
2018-03-24T20:03:15.583Z,1.01
2018-03-24T20:05:43.339Z,1.03
2018-03-24T20:08:11.157Z,1.01
2018-03-24T20:10:38.866Z,1.08
2018-03-24T20:13:06.592Z,1.07
2018-03-24T20:15:34.250Z,1.08
2018-03-24T20:18:02.034Z,1.09
2018-03-24T20:20:29.849Z,1.08
2018-03-24T20:22:57.670Z,1.06
2018-03-24T20:25:25.261Z,1.07
2018-03-24T20:27:52.813Z,0.96
2018-03-24T20:30:20.474Z,0.81
2018-03-24T20:32:48.037Z,0.76
2018-03-24T20:35:15.638Z,0.77
2018-03-24T20:37:43.203Z,0.86
2018-03-24T20:40:10.993Z,0.82
2018-03-24T20:42:38.710Z,0.81
2018-03-24T20:45:06.325Z,0.76
2018-03-24T20:47:33.905Z,0.78
2018-03-24T20:50:01.488Z,0.70
2018-03-24T20:52:29.111Z,0.62
2018-03-24T20:54:56.679Z,0.54
2018-03-24T20:57:24.450Z,0.51
2018-03-24T20:59:52.026Z,0.47
2018-03-24T21:02:19.880Z,0.47
2018-03-24T21:04:47.705Z,0.47
2018-03-24T21:07:15.525Z,0.44
2018-03-24T21:09:43.098Z,0.43
2018-03-24T21:12:10.663Z,0.43
2018-03-24T21:14:38.477Z,0.35
2018-03-24T21:17:06.052Z,0.37
2018-03-24T21:19:33.715Z,0.42
2018-03-24T21:22:01.535Z,0.40
2018-03-24T21:24:29.089Z,0.38
2018-03-24T21:26:56.737Z,0.21
2018-03-24T21:29:24.485Z,0.22
2018-03-24T21:31:52.301Z,0.28
2018-03-24T21:34:19.863Z,0.30
2018-03-24T21:36:47.714Z,0.29
2018-03-24T21:39:15.426Z,0.31
2018-03-24T21:41:43.138Z,0.24
2018-03-24T21:44:10.856Z,0.25
2018-03-24T21:46:38.534Z,0.25
2018-03-24T21:49:06.097Z,0.26
2018-03-24T21:51:33.725Z,0.26
2018-03-24T21:54:01.414Z,0.31
2018-03-24T21:56:28.973Z,0.34
2018-03-24T21:58:56.548Z,0.34
2018-03-24T22:01:24.321Z,0.35
2018-03-24T22:03:52.041Z,0.39
2018-03-24T22:06:19.610Z,0.37
2018-03-24T22:08:47.196Z,0.38
2018-03-24T22:11:14.993Z,0.43
2018-03-24T22:13:42.570Z,0.47
2018-03-24T22:16:10.183Z,0.47
2018-03-24T22:18:37.793Z,0.44
2018-03-24T22:21:05.522Z,0.49
2018-03-24T22:23:33.463Z,0.53
2018-03-24T22:26:01.036Z,0.60
2018-03-24T22:28:28.664Z,0.63
2018-03-24T22:30:56.327Z,0.65
2018-03-24T22:33:23.893Z,0.65
2018-03-24T22:35:51.672Z,0.66
2018-03-24T22:38:19.260Z,0.67
2018-03-24T22:40:47.000Z,0.67
2018-03-24T22:43:14.564Z,0.64
2018-03-24T22:45:42.123Z,0.61
2018-03-24T22:48:09.711Z,0.59
2018-03-24T22:50:37.479Z,0.62
2018-03-24T22:53:05.072Z,0.62
2018-03-24T22:55:32.632Z,0.59
2018-03-24T22:58:00.206Z,0.54
2018-03-24T23:00:27.817Z,0.56
2018-03-24T23:02:55.568Z,0.57
2018-03-24T23:05:23.146Z,0.55
2018-03-24T23:07:50.697Z,0.57
2018-03-24T23:10:18.413Z,0.65
2018-03-24T23:12:46.140Z,0.60
2018-03-24T23:15:13.960Z,0.54
2018-03-24T23:17:41.781Z,0.40
2018-03-24T23:20:09.349Z,0.37
2018-03-24T23:22:36.917Z,0.35
2018-03-24T23:25:04.731Z,0.34
2018-03-24T23:27:32.354Z,0.28
2018-03-24T23:29:59.912Z,0.25
2018-03-24T23:32:27.466Z,0.17
2018-03-24T23:34:55.203Z,0.19
2018-03-24T23:37:22.786Z,0.11
2018-03-24T23:39:50.401Z,0.09
2018-03-24T23:42:17.970Z,0.05
2018-03-24T23:44:45.530Z,-0.01
2018-03-24T23:47:13.105Z,-0.01
2018-03-24T23:49:40.912Z,-0.12
2018-03-24T23:52:08.538Z,-0.19
2018-03-24T23:54:36.098Z,-0.29
2018-03-24T23:57:03.662Z,-0.30
2018-03-24T23:59:31.482Z,-0.34
